Airport View

Enter AWOS ICAO identifier for current METAR.

ex. KFNL

KRVS 310153Z 00000KT 10SM CLR 22/15 A3011 RMK AO2 SLP201 T02220150

31 May 2020 03:00

Phone: 918-299-0740

Other Area AWOS: KTUL - KOWP - KOKM - KGCM

TAF KRVS 302320Z 3100/3124 09003KT P6SM FEW250 FM311500 15008KT P6SM FEW120